createdAt,value
2022-10-23T00:00:43.763Z,100702.88
2022-10-23T00:03:10.500Z,100714.94
2022-10-23T00:05:40.366Z,100745.56
2022-10-23T00:08:06.958Z,100727.34
2022-10-23T00:10:33.824Z,100756.78
2022-10-23T00:13:00.276Z,100751.38
2022-10-23T00:15:27.529Z,100737.63
2022-10-23T00:17:54.233Z,100733.31
2022-10-23T00:20:21.793Z,100719.59
2022-10-23T00:22:48.240Z,100731.31
2022-10-23T00:25:16.325Z,100716.03
2022-10-23T00:27:43.401Z,100699.59
2022-10-23T00:30:10.892Z,100738.31
2022-10-23T00:32:37.457Z,100747.94
2022-10-23T00:35:05.127Z,100748.47
2022-10-23T00:37:31.617Z,100724.69
2022-10-23T00:39:58.048Z,100698.28
2022-10-23T00:42:24.833Z,100759.34
2022-10-23T00:44:51.263Z,100751.25
2022-10-23T00:47:18.087Z,100761.25
2022-10-23T00:49:44.548Z,100711.81
2022-10-23T00:52:12.951Z,100755.53
2022-10-23T00:54:41.163Z,100755.19
2022-10-23T00:57:11.991Z,100750.25
2022-10-23T00:59:38.613Z,100730.09
2022-10-23T01:02:05.244Z,100749.41
2022-10-23T01:04:32.651Z,100706.66
2022-10-23T01:07:19.659Z,100752.78
2022-10-23T01:09:56.340Z,100756.59
2022-10-23T01:12:33.103Z,100747.22
2022-10-23T01:15:47.361Z,100741.09
2022-10-23T01:18:22.951Z,100745.94
2022-10-23T01:21:04.667Z,100747.59
2022-10-23T01:23:40.182Z,100753.78
2022-10-23T01:26:25.151Z,100716.13
2022-10-23T01:29:07.419Z,100685.75
2022-10-23T01:31:38.322Z,100738.91
2022-10-23T01:34:18.879Z,100734.78
2022-10-23T01:36:48.671Z,100723.63
2022-10-23T01:39:19.750Z,100728.38
2022-10-23T01:41:58.552Z,100731.31
2022-10-23T01:44:26.938Z,100726.69
2022-10-23T01:46:53.883Z,100727.59
2022-10-23T01:49:21.534Z,100702.22
2022-10-23T01:51:51.245Z,100732.06
2022-10-23T01:54:19.637Z,100691.81
2022-10-23T01:56:48.709Z,100699.47
2022-10-23T01:59:19.697Z,100711.69
2022-10-23T02:01:48.095Z,100683.88
2022-10-23T02:04:21.499Z,100712.38
2022-10-23T02:06:48.001Z,100638.91
2022-10-23T02:09:14.495Z,100609.75
2022-10-23T02:11:51.212Z,100661.00
2022-10-23T02:14:26.903Z,100659.09
2022-10-23T02:16:55.097Z,100637.03
2022-10-23T02:19:43.720Z,100685.91
2022-10-23T02:22:34.930Z,100686.00
2022-10-23T02:25:12.145Z,100618.59
2022-10-23T02:27:48.282Z,100684.13
2022-10-23T02:30:16.993Z,100659.25
2022-10-23T02:32:49.324Z,100674.00
2022-10-23T02:35:17.534Z,100634.09
2022-10-23T02:37:44.378Z,100649.31
2022-10-23T02:40:11.561Z,100627.00
2022-10-23T02:43:09.267Z,100647.41
2022-10-23T02:46:01.958Z,100662.94
2022-10-23T02:48:33.999Z,100647.34
2022-10-23T02:51:07.240Z,100637.25
2022-10-23T02:53:38.918Z,100614.88
2022-10-23T02:56:29.041Z,100661.56
2022-10-23T02:59:20.515Z,100651.22
2022-10-23T03:01:57.593Z,100648.75
2022-10-23T03:04:24.547Z,100647.78
2022-10-23T03:06:51.596Z,100642.22
2022-10-23T03:09:18.577Z,100630.81
2022-10-23T03:11:45.056Z,100640.75
2022-10-23T03:14:12.942Z,100637.69
2022-10-23T03:16:39.446Z,100597.84
2022-10-23T03:19:05.960Z,100613.56
2022-10-23T03:21:32.459Z,100568.69
2022-10-23T03:23:58.861Z,100601.22
2022-10-23T03:26:25.349Z,100611.72
2022-10-23T03:28:51.774Z,100606.41
2022-10-23T03:31:18.202Z,100630.66
2022-10-23T03:33:44.748Z,100638.91
2022-10-23T03:36:11.281Z,100599.22
2022-10-23T03:38:37.754Z,100630.22
2022-10-23T03:41:04.354Z,100607.25
2022-10-23T03:43:30.806Z,100604.03
2022-10-23T03:45:57.526Z,100566.59
2022-10-23T03:48:24.915Z,100553.31
2022-10-23T03:50:51.652Z,100601.06
2022-10-23T03:53:18.386Z,100598.69
2022-10-23T03:55:45.010Z,100605.88
2022-10-23T03:58:11.471Z,100566.53
2022-10-23T04:00:37.960Z,100606.22
2022-10-23T04:03:04.427Z,100603.00
2022-10-23T04:05:30.868Z,100551.94
2022-10-23T04:07:57.353Z,100590.53
2022-10-23T04:10:23.817Z,100595.56
2022-10-23T04:12:50.348Z,100577.56
2022-10-23T04:15:16.855Z,100595.41
2022-10-23T04:17:43.307Z,100534.09
2022-10-23T04:20:09.918Z,100570.34
2022-10-23T04:22:36.330Z,100533.97
2022-10-23T04:25:02.841Z,100540.16
2022-10-23T04:27:29.481Z,100553.91
2022-10-23T04:29:58.360Z,100518.22
2022-10-23T04:32:25.984Z,100560.75
2022-10-23T04:34:52.447Z,100541.97
2022-10-23T04:37:18.953Z,100570.31
2022-10-23T04:39:45.434Z,100571.38
2022-10-23T04:42:11.861Z,100537.06
2022-10-23T04:44:38.301Z,100525.00
2022-10-23T04:47:04.834Z,100579.81
2022-10-23T04:49:31.272Z,100582.22
2022-10-23T04:51:57.728Z,100581.19
2022-10-23T04:54:24.453Z,100578.50
2022-10-23T04:56:51.093Z,100531.13
2022-10-23T04:59:17.605Z,100500.72
2022-10-23T05:01:44.084Z,100483.03
2022-10-23T05:04:10.702Z,100562.94
2022-10-23T05:06:37.218Z,100530.44
2022-10-23T05:09:03.823Z,100521.00
2022-10-23T05:11:30.256Z,100480.66
2022-10-23T05:13:56.708Z,100517.56
2022-10-23T05:16:40.037Z,100500.91
2022-10-23T05:19:07.948Z,100479.81
2022-10-23T05:21:36.090Z,100536.22
2022-10-23T05:24:02.702Z,100529.03
2022-10-23T05:26:30.974Z,100538.56
2022-10-23T05:28:57.432Z,100485.25
2022-10-23T05:31:24.603Z,100528.88
2022-10-23T05:33:52.948Z,100467.66
2022-10-23T05:36:19.452Z,100526.50
2022-10-23T05:38:46.073Z,100504.16
2022-10-23T05:41:12.668Z,100515.81
2022-10-23T05:43:39.118Z,100530.91
2022-10-23T05:46:06.218Z,100522.88
2022-10-23T05:48:34.993Z,100482.19
2022-10-23T05:51:06.562Z,100517.81
2022-10-23T05:53:33.058Z,100528.19
2022-10-23T05:56:09.274Z,100516.94
2022-10-23T05:58:35.965Z,100518.78
2022-10-23T06:01:07.501Z,100530.69
2022-10-23T06:03:34.685Z,100484.53
2022-10-23T06:06:01.218Z,100518.44
2022-10-23T06:08:27.750Z,100519.09
2022-10-23T06:10:54.267Z,100478.38
2022-10-23T06:13:20.755Z,100359.50
2022-10-23T06:15:47.255Z,100528.81
2022-10-23T06:18:13.783Z,100467.97
2022-10-23T06:20:40.372Z,100520.34
2022-10-23T06:23:07.251Z,100465.69
2022-10-23T06:25:33.749Z,100511.78
2022-10-23T06:28:00.244Z,100499.94
2022-10-23T06:30:26.736Z,100484.28
2022-10-23T06:32:53.972Z,100496.34
2022-10-23T06:35:20.382Z,100446.31
2022-10-23T06:37:47.046Z,100492.31
2022-10-23T06:40:13.462Z,100449.31
2022-10-23T06:42:40.069Z,100482.72
2022-10-23T06:45:07.408Z,100469.00
2022-10-23T06:47:34.090Z,100477.13
2022-10-23T06:50:00.534Z,100441.03
2022-10-23T06:52:47.871Z,100486.00
2022-10-23T06:55:14.826Z,100488.81
2022-10-23T06:57:41.860Z,100481.03
2022-10-23T07:00:09.592Z,100488.59
2022-10-23T07:02:36.764Z,100486.91
2022-10-23T07:05:03.778Z,100485.22
2022-10-23T07:07:30.820Z,100444.84
2022-10-23T07:09:57.424Z,100477.59
2022-10-23T07:12:23.998Z,100463.84
2022-10-23T07:14:50.793Z,100482.66
2022-10-23T07:17:17.334Z,100467.38
2022-10-23T07:19:43.774Z,100484.31
2022-10-23T07:22:13.283Z,100479.94
2022-10-23T07:24:42.235Z,100447.75
2022-10-23T07:27:08.682Z,100474.19
2022-10-23T07:29:35.274Z,100472.16
2022-10-23T07:32:01.845Z,100443.13
2022-10-23T07:34:38.224Z,100448.09
2022-10-23T07:37:04.646Z,100461.56
2022-10-23T07:39:31.136Z,100461.03
2022-10-23T07:41:57.567Z,100425.38
2022-10-23T07:44:26.976Z,100454.84
2022-10-23T07:46:54.294Z,100419.81
2022-10-23T07:49:20.795Z,100461.88
2022-10-23T07:51:50.511Z,100466.34
2022-10-23T07:54:18.199Z,100464.13
2022-10-23T07:56:44.693Z,100464.44
2022-10-23T07:59:14.169Z,100452.66
2022-10-23T08:01:43.663Z,100448.31
2022-10-23T08:04:10.799Z,100437.41
2022-10-23T08:06:38.225Z,100457.88
2022-10-23T08:09:06.556Z,100454.13
2022-10-23T08:11:35.547Z,100464.72
2022-10-23T08:14:06.628Z,100425.44
2022-10-23T08:16:34.519Z,100415.69
2022-10-23T08:19:01.375Z,100455.47
2022-10-23T08:21:28.051Z,100441.00
2022-10-23T08:23:58.224Z,100456.16
2022-10-23T08:26:25.730Z,100417.88
2022-10-23T08:28:52.830Z,100428.16
2022-10-23T08:31:20.806Z,100451.34
2022-10-23T08:36:20.232Z,100434.34
2022-10-23T08:38:46.755Z,100406.47
2022-10-23T08:41:29.547Z,100432.91
2022-10-23T08:44:22.375Z,100431.63
2022-10-23T08:47:00.783Z,100424.53
2022-10-23T08:49:33.313Z,100420.03
2022-10-23T08:52:03.171Z,100419.06
2022-10-23T08:54:43.423Z,100420.13
2022-10-23T08:57:13.650Z,100411.16
2022-10-23T08:59:48.602Z,100407.31
2022-10-23T09:02:18.291Z,100408.16
2022-10-23T09:04:46.775Z,100397.97
2022-10-23T09:07:34.043Z,100390.50
2022-10-23T09:10:25.600Z,100401.63
2022-10-23T09:12:52.092Z,100405.34
2022-10-23T09:15:25.099Z,100395.22
2022-10-23T09:17:58.721Z,100375.63
2022-10-23T09:20:26.885Z,100391.94
2022-10-23T09:22:57.327Z,100353.59
2022-10-23T09:25:26.842Z,100390.91
2022-10-23T09:27:57.329Z,100385.41
2022-10-23T09:30:36.609Z,100386.41
2022-10-23T09:33:19.717Z,100383.34
2022-10-23T09:36:00.046Z,100373.84
2022-10-23T09:38:31.947Z,100372.41
2022-10-23T09:41:21.666Z,100361.00
2022-10-23T09:44:01.738Z,100360.50
2022-10-23T09:46:45.200Z,100366.34
2022-10-23T09:49:20.709Z,100355.78
2022-10-23T09:51:54.326Z,100350.91
2022-10-23T09:54:23.846Z,100353.41
2022-10-23T09:56:50.786Z,100338.53
2022-10-23T09:59:28.926Z,100337.25
2022-10-23T10:01:58.771Z,100316.63
2022-10-23T10:04:40.192Z,100337.09
2022-10-23T10:07:20.980Z,100331.94
2022-10-23T10:09:47.837Z,100309.84
2022-10-23T10:12:17.278Z,100330.66
2022-10-23T10:15:01.708Z,100331.63
2022-10-23T10:17:39.865Z,100288.22
2022-10-23T10:20:27.703Z,100322.69
2022-10-23T10:23:06.461Z,100324.81
2022-10-23T10:25:39.390Z,100322.88
2022-10-23T10:28:27.170Z,100316.84
2022-10-23T10:31:01.317Z,100310.38
2022-10-23T10:33:45.893Z,100305.00
2022-10-23T10:36:30.608Z,100308.34
2022-10-23T10:39:00.344Z,100284.81
2022-10-23T10:42:00.892Z,100299.25
2022-10-23T10:44:49.065Z,100300.88
2022-10-23T10:47:22.719Z,100288.81
2022-10-23T10:49:55.473Z,100284.22
2022-10-23T10:52:28.314Z,100270.25
2022-10-23T10:55:05.933Z,100267.63
2022-10-23T10:57:34.850Z,100252.47
2022-10-23T11:00:06.505Z,100260.69
2022-10-23T11:02:42.433Z,100243.56
2022-10-23T11:05:44.296Z,100216.03
2022-10-23T11:08:18.147Z,100203.06
2022-10-23T11:10:46.717Z,100238.16
2022-10-23T11:13:25.288Z,100238.81
2022-10-23T11:15:54.778Z,100200.09
2022-10-23T11:18:27.197Z,100234.66
2022-10-23T11:21:15.346Z,100231.72
2022-10-23T11:24:03.136Z,100230.63
2022-10-23T11:27:04.036Z,100215.22
2022-10-23T11:29:40.800Z,100217.84
2022-10-23T11:32:38.150Z,100214.13
2022-10-23T11:35:04.541Z,100218.94
2022-10-23T11:37:31.076Z,100215.56
2022-10-23T11:40:02.771Z,100210.66
2022-10-23T11:42:41.598Z,100202.84
2022-10-23T11:45:27.087Z,100196.09
2022-10-23T11:48:24.069Z,100182.78
2022-10-23T11:50:54.927Z,100185.53
2022-10-23T11:53:38.236Z,100169.22
2022-10-23T11:56:14.544Z,100167.97
2022-10-23T11:58:46.740Z,100173.19
2022-10-23T12:01:25.381Z,100157.41
2022-10-23T12:04:12.359Z,100150.69
2022-10-23T12:06:42.120Z,100145.34
2022-10-23T12:09:26.966Z,100135.59
2022-10-23T12:12:08.852Z,100143.66
2022-10-23T12:14:39.521Z,100138.41
2022-10-23T12:17:24.317Z,100145.78
2022-10-23T12:20:02.429Z,100161.06
2022-10-23T12:22:39.643Z,100158.72
2022-10-23T12:25:13.777Z,100145.34
2022-10-23T12:27:48.970Z,100140.06
2022-10-23T12:30:24.241Z,100120.28
2022-10-23T12:33:13.944Z,100114.28
2022-10-23T12:36:00.803Z,100122.78
2022-10-23T12:38:32.583Z,100002.13
2022-10-23T12:41:19.356Z,100106.66
2022-10-23T12:43:55.552Z,100098.78
2022-10-23T12:46:37.447Z,100082.66
2022-10-23T12:49:11.595Z,100072.84
2022-10-23T12:51:38.107Z,100060.41
2022-10-23T12:54:23.451Z,100042.84
2022-10-23T12:56:50.409Z,100027.03
2022-10-23T12:59:21.305Z,100031.94
2022-10-23T13:01:52.573Z,100021.13
2022-10-23T13:04:28.364Z,100040.75
2022-10-23T13:06:56.784Z,99940.00
2022-10-23T13:09:24.619Z,100019.13
2022-10-23T13:11:52.429Z,100029.56
2022-10-23T13:14:38.218Z,100031.94
2022-10-23T13:17:10.058Z,100029.75
2022-10-23T13:19:36.874Z,100022.31
2022-10-23T13:22:05.494Z,100017.66
2022-10-23T13:24:31.958Z,100014.72
2022-10-23T13:26:58.922Z,100009.00
2022-10-23T13:29:28.952Z,99998.81
2022-10-23T13:31:55.822Z,99989.66
2022-10-23T13:34:30.276Z,100009.31
2022-10-23T13:37:23.029Z,99962.88
2022-10-23T13:40:00.588Z,99991.94
2022-10-23T13:42:27.209Z,99993.72
2022-10-23T13:44:53.720Z,99971.19
2022-10-23T13:47:20.534Z,99987.91
2022-10-23T13:49:47.050Z,99969.41
2022-10-23T13:52:15.145Z,99980.13
2022-10-23T13:54:43.437Z,99980.44
2022-10-23T13:57:13.581Z,99983.69
2022-10-23T13:59:40.050Z,99979.13
2022-10-23T14:02:19.071Z,99975.25
2022-10-23T14:04:47.127Z,99981.50
2022-10-23T14:07:13.559Z,99971.78
2022-10-23T14:09:40.001Z,99960.59
2022-10-23T14:12:06.651Z,99958.03
2022-10-23T14:14:33.757Z,99957.94
2022-10-23T14:17:00.307Z,99951.78
2022-10-23T14:19:26.884Z,99943.44
2022-10-23T14:21:53.330Z,99939.91
2022-10-23T14:24:19.859Z,99940.38
2022-10-23T14:26:46.376Z,99944.91
2022-10-23T14:29:21.359Z,99936.19
2022-10-23T14:31:49.709Z,99933.78
2022-10-23T14:34:16.748Z,99906.72
2022-10-23T14:36:50.184Z,99937.69
2022-10-23T14:39:18.102Z,99927.50
2022-10-23T14:41:44.562Z,99933.34
2022-10-23T14:44:11.018Z,99923.59
2022-10-23T14:46:38.386Z,99892.59
2022-10-23T14:49:05.643Z,99915.91
2022-10-23T14:51:32.289Z,99925.84
2022-10-23T14:54:01.731Z,99922.06
2022-10-23T14:56:33.331Z,99910.31
2022-10-23T14:59:03.048Z,99912.81
2022-10-23T15:01:36.456Z,99857.22
2022-10-23T15:04:03.380Z,99901.19
2022-10-23T15:06:30.181Z,99899.38
2022-10-23T15:08:56.835Z,99896.44
2022-10-23T15:11:24.510Z,99888.56
2022-10-23T15:13:51.342Z,99881.03
2022-10-23T15:16:17.934Z,99886.06
2022-10-23T15:18:44.382Z,99875.09
2022-10-23T15:21:12.449Z,99876.47
2022-10-23T15:23:40.772Z,99873.03
2022-10-23T15:26:13.974Z,99866.13
2022-10-23T15:28:40.479Z,99862.59
2022-10-23T15:31:06.959Z,99854.72
2022-10-23T15:33:33.439Z,99857.41
2022-10-23T15:35:59.875Z,99870.59
2022-10-23T15:38:26.403Z,99844.53
2022-10-23T15:40:54.439Z,99869.34
2022-10-23T15:43:21.097Z,99816.16
2022-10-23T15:45:47.577Z,99858.47
2022-10-23T15:48:14.173Z,99868.28
2022-10-23T15:50:40.702Z,99865.44
2022-10-23T15:53:07.131Z,99853.00
2022-10-23T15:55:33.637Z,99858.34
2022-10-23T15:58:49.750Z,99891.63
2022-10-23T16:01:16.430Z,99905.41
2022-10-23T16:03:43.054Z,99908.44
2022-10-23T16:06:11.528Z,99924.59
2022-10-23T16:08:38.744Z,99887.53
2022-10-23T16:11:13.786Z,99912.34
2022-10-23T16:13:40.329Z,99901.28
2022-10-23T16:16:07.282Z,99914.59
2022-10-23T16:18:33.721Z,99921.91
2022-10-23T16:21:00.164Z,99915.25
2022-10-23T16:23:28.307Z,99930.50
2022-10-23T16:25:55.150Z,99919.13
2022-10-23T16:28:21.661Z,99916.66
2022-10-23T16:30:48.092Z,99896.19
2022-10-23T16:33:14.556Z,99916.16
2022-10-23T16:35:41.063Z,99896.81
2022-10-23T16:38:07.583Z,99898.59
2022-10-23T16:40:34.009Z,99907.69
2022-10-23T16:43:00.448Z,99912.06
2022-10-23T16:45:26.970Z,99915.06
2022-10-23T16:47:53.765Z,99932.66
2022-10-23T16:50:21.842Z,99897.28
2022-10-23T16:52:49.947Z,99906.16
2022-10-23T16:55:18.747Z,99947.81
2022-10-23T16:57:45.211Z,99934.31
2022-10-23T17:00:12.046Z,99938.59
2022-10-23T17:02:38.971Z,99961.72
2022-10-23T17:05:05.922Z,99956.06
2022-10-23T17:07:32.448Z,99947.03
2022-10-23T17:09:58.970Z,99979.69
2022-10-23T17:12:25.410Z,99958.56
2022-10-23T17:14:52.007Z,99934.41
2022-10-23T17:17:18.600Z,99958.28
2022-10-23T17:19:46.520Z,99953.53
2022-10-23T17:22:14.062Z,100027.16
2022-10-23T17:24:41.600Z,100037.28
2022-10-23T17:27:08.305Z,99978.88
2022-10-23T17:29:35.157Z,99980.19
2022-10-23T17:32:01.834Z,100059.66
2022-10-23T17:34:28.326Z,100071.69
2022-10-23T17:36:55.779Z,100087.50
2022-10-23T17:39:28.984Z,100102.75
2022-10-23T17:41:58.031Z,100114.97
2022-10-23T17:44:24.515Z,100132.13
2022-10-23T17:46:53.565Z,100124.91
2022-10-23T17:49:21.023Z,100078.88
2022-10-23T17:51:51.602Z,100086.25
2022-10-23T17:54:18.142Z,99960.59
2022-10-23T17:56:44.792Z,100056.91
2022-10-23T17:59:16.311Z,99997.59
2022-10-23T18:01:43.961Z,99990.38
2022-10-23T18:04:10.615Z,99919.09
2022-10-23T18:06:45.725Z,99926.25
2022-10-23T18:09:12.781Z,99891.63
2022-10-23T18:11:45.267Z,99900.25
2022-10-23T18:14:14.004Z,99928.75
2022-10-23T18:16:40.756Z,99839.41
2022-10-23T18:19:07.851Z,99913.88
2022-10-23T18:21:35.771Z,99988.28
2022-10-23T18:24:02.897Z,99986.59
2022-10-23T18:26:32.143Z,99991.22
2022-10-23T18:28:59.491Z,99949.78
2022-10-23T18:31:29.610Z,99931.22
2022-10-23T18:34:03.151Z,99958.38
2022-10-23T18:36:32.702Z,99932.81
2022-10-23T18:38:59.580Z,99952.19
2022-10-23T18:41:26.220Z,99958.97
2022-10-23T18:43:53.783Z,99952.88
2022-10-23T18:46:20.467Z,99942.88
2022-10-23T18:48:47.981Z,99937.16
2022-10-23T18:51:22.930Z,99927.38
2022-10-23T18:53:49.622Z,99897.84
2022-10-23T18:56:21.960Z,99881.44
2022-10-23T18:58:53.354Z,99868.41
2022-10-23T19:01:20.908Z,99909.25
2022-10-23T19:03:47.815Z,99897.28
2022-10-23T19:06:14.880Z,99892.00
2022-10-23T19:08:42.848Z,99899.50
2022-10-23T19:11:10.609Z,99903.56
2022-10-23T19:13:39.137Z,99875.50
2022-10-23T19:16:19.022Z,99896.63
2022-10-23T19:18:48.377Z,99896.09
2022-10-23T19:21:16.955Z,99891.47
2022-10-23T19:23:43.876Z,99829.88
2022-10-23T19:26:12.992Z,99878.56
2022-10-23T19:28:42.392Z,99870.03
2022-10-23T19:31:12.840Z,99858.59
2022-10-23T19:33:39.593Z,99847.22
2022-10-23T19:36:11.218Z,99847.13
2022-10-23T19:38:43.267Z,99832.00
2022-10-23T19:41:09.940Z,99859.88
2022-10-23T19:43:37.748Z,99812.78
2022-10-23T19:46:09.269Z,99848.75
2022-10-23T19:48:42.273Z,99853.72
2022-10-23T19:51:09.453Z,99830.28
2022-10-23T19:53:36.318Z,99842.34
2022-10-23T19:56:04.782Z,99851.88
2022-10-23T19:58:31.264Z,99844.19
2022-10-23T20:00:57.792Z,99792.16
2022-10-23T20:03:24.372Z,99848.00
2022-10-23T20:05:50.864Z,99787.16
2022-10-23T20:08:18.007Z,99808.63
2022-10-23T20:10:46.492Z,99845.91
2022-10-23T20:13:19.852Z,99845.53
2022-10-23T20:15:47.068Z,99854.34
2022-10-23T20:18:13.620Z,99809.88
2022-10-23T20:20:41.595Z,99858.84
2022-10-23T20:23:08.322Z,99861.53
2022-10-23T20:25:34.879Z,99864.06
2022-10-23T20:28:01.359Z,99863.47
2022-10-23T20:30:28.069Z,99828.88
2022-10-23T20:32:54.528Z,99828.13
2022-10-23T20:35:21.109Z,99825.00
2022-10-23T20:37:47.585Z,99819.56
2022-10-23T20:40:14.262Z,99842.34
2022-10-23T20:42:40.947Z,99844.22
2022-10-23T20:45:07.908Z,99830.38
2022-10-23T20:47:34.380Z,99802.97
2022-10-23T20:50:00.816Z,99814.75
2022-10-23T20:52:30.138Z,99875.16
2022-10-23T20:54:56.728Z,99872.59
2022-10-23T20:57:23.202Z,99857.94
2022-10-23T20:59:49.676Z,99881.22
2022-10-23T21:02:16.366Z,99864.00
2022-10-23T21:04:42.865Z,99859.44
2022-10-23T21:07:11.078Z,99831.59
2022-10-23T21:09:38.529Z,99919.03
2022-10-23T21:12:06.422Z,99918.28
2022-10-23T21:14:33.103Z,99939.28
2022-10-23T21:16:59.543Z,99931.94
2022-10-23T21:19:25.993Z,99896.94
2022-10-23T21:21:52.558Z,99942.53
2022-10-23T21:24:19.041Z,99959.34
2022-10-23T21:26:45.670Z,99930.00
2022-10-23T21:29:18.394Z,99975.91
2022-10-23T21:31:46.073Z,99970.28
2022-10-23T21:34:12.669Z,99937.88
2022-10-23T21:36:48.482Z,99939.75
2022-10-23T21:39:20.454Z,99982.69
2022-10-23T21:41:47.353Z,99941.16
2022-10-23T21:44:13.833Z,99941.91
2022-10-23T21:46:41.646Z,99929.59
2022-10-23T21:49:09.819Z,99978.09
2022-10-23T21:51:37.372Z,99948.63
2022-10-23T21:54:08.669Z,99942.69
2022-10-23T21:56:42.061Z,99974.97
2022-10-23T21:59:12.749Z,99984.34
2022-10-23T22:01:44.132Z,99958.13
2022-10-23T22:04:11.844Z,99909.97
2022-10-23T22:06:38.846Z,99958.69
2022-10-23T22:09:06.174Z,99971.44
2022-10-23T22:11:32.875Z,99937.13
2022-10-23T22:13:59.607Z,99925.97
2022-10-23T22:16:26.262Z,99959.78
2022-10-23T22:18:53.390Z,99972.03
2022-10-23T22:21:22.427Z,99969.22
2022-10-23T22:23:49.628Z,99962.66
2022-10-23T22:26:22.332Z,99964.78
2022-10-23T22:28:49.928Z,99970.66
2022-10-23T22:31:18.132Z,99963.09
2022-10-23T22:33:44.717Z,99973.72
2022-10-23T22:36:11.334Z,99964.97
2022-10-23T22:38:38.217Z,99952.00
2022-10-23T22:41:05.819Z,99937.66
2022-10-23T22:43:32.426Z,99908.38
2022-10-23T22:46:08.441Z,99955.44
2022-10-23T22:48:35.643Z,99951.97
2022-10-23T22:51:02.966Z,99938.66
2022-10-23T22:53:29.515Z,99911.00
2022-10-23T22:55:56.715Z,99924.72
2022-10-23T22:58:24.104Z,99845.28
2022-10-23T23:00:52.232Z,99907.06
2022-10-23T23:03:18.826Z,99933.03
2022-10-23T23:05:47.221Z,99941.22
2022-10-23T23:08:14.591Z,99917.00
2022-10-23T23:10:41.297Z,99953.69
2022-10-23T23:13:07.751Z,99953.47
2022-10-23T23:15:39.060Z,99951.91
2022-10-23T23:18:05.865Z,99940.41
2022-10-23T23:20:32.386Z,99946.13
2022-10-23T23:23:09.703Z,99952.38
2022-10-23T23:25:41.016Z,99949.72
2022-10-23T23:28:07.597Z,99935.47
2022-10-23T23:30:34.210Z,99950.56
2022-10-23T23:33:00.674Z,99944.34
2022-10-23T23:35:27.219Z,99952.56
2022-10-23T23:37:53.689Z,99946.72
2022-10-23T23:40:20.135Z,99910.50
2022-10-23T23:42:47.120Z,99943.00
2022-10-23T23:45:14.957Z,99941.69
2022-10-23T23:47:42.336Z,99912.06
2022-10-23T23:50:10.635Z,99927.59
2022-10-23T23:52:37.219Z,99943.13
2022-10-23T23:55:04.100Z,99933.09
2022-10-23T23:57:30.657Z,99911.97
2022-10-23T23:59:57.190Z,99949.47
